sensor_id;sensor_type;location;lat;lon;timestamp;P1;durP1;ratioP1;P2;durP2;ratioP2
57551;SDS011;43379;48.160;14.036;2023-04-24T00:00:03;3.60;;;2.53;;
57551;SDS011;43379;48.160;14.036;2023-04-24T00:02:34;3.13;;;2.90;;
57551;SDS011;43379;48.160;14.036;2023-04-24T00:05:02;3.37;;;3.07;;
57551;SDS011;43379;48.160;14.036;2023-04-24T00:07:29;2.30;;;2.10;;
57551;SDS011;43379;48.160;14.036;2023-04-24T00:09:55;4.30;;;2.80;;
57551;SDS011;43379;48.160;14.036;2023-04-24T00:12:21;2.77;;;2.57;;
57551;SDS011;43379;48.160;14.036;2023-04-24T00:14:50;2.43;;;2.23;;
57551;SDS011;43379;48.160;14.036;2023-04-24T00:17:16;3.80;;;2.50;;
57551;SDS011;43379;48.160;14.036;2023-04-24T00:19:45;2.70;;;2.50;;
57551;SDS011;43379;48.160;14.036;2023-04-24T00:22:11;2.60;;;2.40;;
57551;SDS011;43379;48.160;14.036;2023-04-24T00:24:38;3.60;;;2.63;;
57551;SDS011;43379;48.160;14.036;2023-04-24T00:27:04;4.53;;;1.63;;
57551;SDS011;43379;48.160;14.036;2023-04-24T00:29:30;2.23;;;1.97;;
57551;SDS011;43379;48.160;14.036;2023-04-24T00:31:56;4.20;;;1.90;;
57551;SDS011;43379;48.160;14.036;2023-04-24T00:34:22;2.73;;;1.80;;
57551;SDS011;43379;48.160;14.036;2023-04-24T00:36:47;3.10;;;2.10;;
57551;SDS011;43379;48.160;14.036;2023-04-24T00:39:17;3.70;;;2.17;;
57551;SDS011;43379;48.160;14.036;2023-04-24T00:41:46;3.73;;;2.00;;
57551;SDS011;43379;48.160;14.036;2023-04-24T00:44:13;1.90;;;1.80;;
57551;SDS011;43379;48.160;14.036;2023-04-24T00:46:39;1.97;;;1.87;;
57551;SDS011;43379;48.160;14.036;2023-04-24T00:49:05;2.47;;;2.27;;
57551;SDS011;43379;48.160;14.036;2023-04-24T00:51:31;4.70;;;2.70;;
57551;SDS011;43379;48.160;14.036;2023-04-24T00:53:57;2.30;;;2.10;;
57551;SDS011;43379;48.160;14.036;2023-04-24T00:56:23;4.40;;;2.43;;
57551;SDS011;43379;48.160;14.036;2023-04-24T00:58:49;3.40;;;2.50;;
57551;SDS011;43379;48.160;14.036;2023-04-24T01:01:15;5.03;;;3.33;;
57551;SDS011;43379;48.160;14.036;2023-04-24T01:03:41;3.50;;;2.23;;
57551;SDS011;43379;48.160;14.036;2023-04-24T01:06:07;2.00;;;1.80;;
57551;SDS011;43379;48.160;14.036;2023-04-24T01:08:35;2.13;;;1.90;;
57551;SDS011;43379;48.160;14.036;2023-04-24T01:11:01;3.90;;;2.60;;
57551;SDS011;43379;48.160;14.036;2023-04-24T01:13:29;2.50;;;1.80;;
57551;SDS011;43379;48.160;14.036;2023-04-24T01:15:56;1.77;;;1.67;;
57551;SDS011;43379;48.160;14.036;2023-04-24T01:18:22;3.20;;;1.80;;
57551;SDS011;43379;48.160;14.036;2023-04-24T01:20:48;1.97;;;1.87;;
57551;SDS011;43379;48.160;14.036;2023-04-24T01:23:19;3.13;;;1.53;;
57551;SDS011;43379;48.160;14.036;2023-04-24T01:25:45;2.10;;;1.43;;
57551;SDS011;43379;48.160;14.036;2023-04-24T01:28:11;2.70;;;2.00;;
57551;SDS011;43379;48.160;14.036;2023-04-24T01:30:39;3.20;;;1.80;;
57551;SDS011;43379;48.160;14.036;2023-04-24T01:33:04;2.43;;;1.80;;
57551;SDS011;43379;48.160;14.036;2023-04-24T01:35:30;1.80;;;1.50;;
57551;SDS011;43379;48.160;14.036;2023-04-24T01:37:56;1.80;;;1.60;;
57551;SDS011;43379;48.160;14.036;2023-04-24T01:40:22;1.70;;;1.60;;
57551;SDS011;43379;48.160;14.036;2023-04-24T01:42:48;2.10;;;1.80;;
57551;SDS011;43379;48.160;14.036;2023-04-24T01:45:13;1.47;;;1.37;;
57551;SDS011;43379;48.160;14.036;2023-04-24T01:47:39;1.83;;;1.47;;
57551;SDS011;43379;48.160;14.036;2023-04-24T01:50:05;2.10;;;1.70;;
57551;SDS011;43379;48.160;14.036;2023-04-24T01:52:32;1.73;;;1.47;;
57551;SDS011;43379;48.160;14.036;2023-04-24T01:55:02;2.17;;;1.73;;
57551;SDS011;43379;48.160;14.036;2023-04-24T01:57:29;2.23;;;1.50;;
57551;SDS011;43379;48.160;14.036;2023-04-24T01:59:55;1.27;;;1.13;;
57551;SDS011;43379;48.160;14.036;2023-04-24T02:02:21;1.70;;;1.60;;
57551;SDS011;43379;48.160;14.036;2023-04-24T02:04:49;2.20;;;2.00;;
57551;SDS011;43379;48.160;14.036;2023-04-24T02:07:15;2.07;;;1.80;;
57551;SDS011;43379;48.160;14.036;2023-04-24T02:09:41;2.20;;;1.80;;
57551;SDS011;43379;48.160;14.036;2023-04-24T02:12:06;1.73;;;1.63;;
57551;SDS011;43379;48.160;14.036;2023-04-24T02:14:32;1.90;;;1.70;;
57551;SDS011;43379;48.160;14.036;2023-04-24T02:16:58;2.07;;;1.93;;
57551;SDS011;43379;48.160;14.036;2023-04-24T02:19:23;2.10;;;1.90;;
57551;SDS011;43379;48.160;14.036;2023-04-24T02:21:49;1.80;;;1.70;;
57551;SDS011;43379;48.160;14.036;2023-04-24T02:24:15;4.83;;;1.80;;
57551;SDS011;43379;48.160;14.036;2023-04-24T02:26:41;2.30;;;1.57;;
57551;SDS011;43379;48.160;14.036;2023-04-24T02:29:07;3.50;;;2.00;;
57551;SDS011;43379;48.160;14.036;2023-04-24T02:31:32;2.63;;;2.30;;
57551;SDS011;43379;48.160;14.036;2023-04-24T02:33:58;2.70;;;2.33;;
57551;SDS011;43379;48.160;14.036;2023-04-24T02:36:24;2.13;;;2.03;;
57551;SDS011;43379;48.160;14.036;2023-04-24T02:38:50;2.83;;;2.27;;
57551;SDS011;43379;48.160;14.036;2023-04-24T02:41:15;2.03;;;1.83;;
57551;SDS011;43379;48.160;14.036;2023-04-24T02:43:41;2.27;;;1.60;;
57551;SDS011;43379;48.160;14.036;2023-04-24T02:46:07;2.80;;;2.00;;
57551;SDS011;43379;48.160;14.036;2023-04-24T02:48:32;2.50;;;2.30;;
57551;SDS011;43379;48.160;14.036;2023-04-24T02:50:58;3.03;;;2.83;;
57551;SDS011;43379;48.160;14.036;2023-04-24T02:53:24;2.70;;;2.47;;
57551;SDS011;43379;48.160;14.036;2023-04-24T02:55:49;2.20;;;2.00;;
57551;SDS011;43379;48.160;14.036;2023-04-24T02:58:15;2.73;;;2.40;;
57551;SDS011;43379;48.160;14.036;2023-04-24T03:00:42;3.00;;;2.50;;
57551;SDS011;43379;48.160;14.036;2023-04-24T03:03:08;4.67;;;2.67;;
57551;SDS011;43379;48.160;14.036;2023-04-24T03:05:34;2.60;;;2.40;;
57551;SDS011;43379;48.160;14.036;2023-04-24T03:08:00;2.70;;;2.40;;
57551;SDS011;43379;48.160;14.036;2023-04-24T03:10:25;2.97;;;2.23;;
57551;SDS011;43379;48.160;14.036;2023-04-24T03:12:51;6.73;;;2.37;;
57551;SDS011;43379;48.160;14.036;2023-04-24T03:15:17;2.53;;;2.33;;
57551;SDS011;43379;48.160;14.036;2023-04-24T03:17:42;3.00;;;2.30;;
57551;SDS011;43379;48.160;14.036;2023-04-24T03:20:08;2.53;;;2.20;;
57551;SDS011;43379;48.160;14.036;2023-04-24T03:22:34;2.50;;;2.30;;
57551;SDS011;43379;48.160;14.036;2023-04-24T03:25:00;3.73;;;2.40;;
57551;SDS011;43379;48.160;14.036;2023-04-24T03:27:26;2.30;;;2.10;;
57551;SDS011;43379;48.160;14.036;2023-04-24T03:29:52;2.50;;;2.30;;
57551;SDS011;43379;48.160;14.036;2023-04-24T03:32:20;2.30;;;2.03;;
57551;SDS011;43379;48.160;14.036;2023-04-24T03:34:47;2.23;;;2.03;;
57551;SDS011;43379;48.160;14.036;2023-04-24T03:37:13;2.17;;;2.03;;
57551;SDS011;43379;48.160;14.036;2023-04-24T03:39:39;2.67;;;2.47;;
57551;SDS011;43379;48.160;14.036;2023-04-24T03:42:04;2.70;;;2.13;;
57551;SDS011;43379;48.160;14.036;2023-04-24T03:44:30;5.90;;;2.30;;
57551;SDS011;43379;48.160;14.036;2023-04-24T03:46:57;2.47;;;2.27;;
57551;SDS011;43379;48.160;14.036;2023-04-24T03:49:23;3.17;;;2.43;;
57551;SDS011;43379;48.160;14.036;2023-04-24T03:51:49;4.73;;;2.33;;
57551;SDS011;43379;48.160;14.036;2023-04-24T03:54:14;4.40;;;2.33;;
57551;SDS011;43379;48.160;14.036;2023-04-24T03:56:40;2.40;;;2.20;;
57551;SDS011;43379;48.160;14.036;2023-04-24T03:59:05;2.77;;;2.10;;
57551;SDS011;43379;48.160;14.036;2023-04-24T04:01:31;2.23;;;2.00;;
57551;SDS011;43379;48.160;14.036;2023-04-24T04:03:57;2.13;;;1.90;;
57551;SDS011;43379;48.160;14.036;2023-04-24T04:06:22;2.60;;;2.40;;
57551;SDS011;43379;48.160;14.036;2023-04-24T04:08:48;3.67;;;2.73;;
57551;SDS011;43379;48.160;14.036;2023-04-24T04:11:14;3.57;;;2.73;;
57551;SDS011;43379;48.160;14.036;2023-04-24T04:13:40;2.57;;;2.37;;
57551;SDS011;43379;48.160;14.036;2023-04-24T04:16:05;4.27;;;2.50;;
57551;SDS011;43379;48.160;14.036;2023-04-24T04:18:31;3.40;;;2.30;;
57551;SDS011;43379;48.160;14.036;2023-04-24T04:20:57;3.60;;;2.73;;
57551;SDS011;43379;48.160;14.036;2023-04-24T04:23:22;4.30;;;3.40;;
57551;SDS011;43379;48.160;14.036;2023-04-24T04:25:48;5.03;;;3.80;;
57551;SDS011;43379;48.160;14.036;2023-04-24T04:28:15;2.93;;;2.43;;
57551;SDS011;43379;48.160;14.036;2023-04-24T04:30:40;2.33;;;2.10;;
57551;SDS011;43379;48.160;14.036;2023-04-24T04:33:06;2.33;;;1.90;;
57551;SDS011;43379;48.160;14.036;2023-04-24T04:35:33;2.50;;;2.30;;
57551;SDS011;43379;48.160;14.036;2023-04-24T04:37:59;2.70;;;2.37;;
57551;SDS011;43379;48.160;14.036;2023-04-24T04:40:25;2.83;;;2.63;;
57551;SDS011;43379;48.160;14.036;2023-04-24T04:42:53;2.80;;;2.40;;
57551;SDS011;43379;48.160;14.036;2023-04-24T04:45:19;2.03;;;1.87;;
57551;SDS011;43379;48.160;14.036;2023-04-24T04:47:45;3.33;;;2.40;;
57551;SDS011;43379;48.160;14.036;2023-04-24T04:50:11;2.10;;;1.90;;
57551;SDS011;43379;48.160;14.036;2023-04-24T04:52:37;1.73;;;1.60;;
57551;SDS011;43379;48.160;14.036;2023-04-24T04:55:02;2.60;;;1.87;;
57551;SDS011;43379;48.160;14.036;2023-04-24T04:57:28;2.17;;;1.80;;
57551;SDS011;43379;48.160;14.036;2023-04-24T04:59:55;11.33;;;7.70;;
57551;SDS011;43379;48.160;14.036;2023-04-24T05:02:20;18.37;;;11.63;;
57551;SDS011;43379;48.160;14.036;2023-04-24T05:04:46;10.80;;;8.13;;
57551;SDS011;43379;48.160;14.036;2023-04-24T05:07:12;4.40;;;3.97;;
57551;SDS011;43379;48.160;14.036;2023-04-24T05:09:38;2.53;;;2.33;;
57551;SDS011;43379;48.160;14.036;2023-04-24T05:12:03;2.10;;;1.90;;
57551;SDS011;43379;48.160;14.036;2023-04-24T05:14:29;2.80;;;1.83;;
57551;SDS011;43379;48.160;14.036;2023-04-24T05:16:55;3.97;;;2.00;;
57551;SDS011;43379;48.160;14.036;2023-04-24T05:19:20;2.30;;;1.53;;
57551;SDS011;43379;48.160;14.036;2023-04-24T05:21:46;2.07;;;1.90;;
57551;SDS011;43379;48.160;14.036;2023-04-24T05:24:11;2.27;;;1.80;;
57551;SDS011;43379;48.160;14.036;2023-04-24T05:26:37;2.17;;;1.93;;
57551;SDS011;43379;48.160;14.036;2023-04-24T05:29:03;2.63;;;2.43;;
57551;SDS011;43379;48.160;14.036;2023-04-24T05:31:29;3.20;;;3.00;;
57551;SDS011;43379;48.160;14.036;2023-04-24T05:33:54;1.90;;;1.80;;
57551;SDS011;43379;48.160;14.036;2023-04-24T05:36:20;2.13;;;1.93;;
57551;SDS011;43379;48.160;14.036;2023-04-24T05:38:46;5.30;;;2.67;;
57551;SDS011;43379;48.160;14.036;2023-04-24T05:41:11;3.40;;;3.10;;
57551;SDS011;43379;48.160;14.036;2023-04-24T05:43:37;2.07;;;1.80;;
57551;SDS011;43379;48.160;14.036;2023-04-24T05:46:02;1.90;;;1.80;;
57551;SDS011;43379;48.160;14.036;2023-04-24T05:48:28;2.20;;;2.03;;
57551;SDS011;43379;48.160;14.036;2023-04-24T05:50:54;3.00;;;2.80;;
57551;SDS011;43379;48.160;14.036;2023-04-24T05:53:20;2.73;;;2.53;;
57551;SDS011;43379;48.160;14.036;2023-04-24T05:55:45;2.10;;;2.00;;
57551;SDS011;43379;48.160;14.036;2023-04-24T05:58:12;1.90;;;1.63;;
57551;SDS011;43379;48.160;14.036;2023-04-24T06:00:38;2.13;;;1.73;;
57551;SDS011;43379;48.160;14.036;2023-04-24T06:03:07;1.60;;;1.50;;
57551;SDS011;43379;48.160;14.036;2023-04-24T06:05:33;2.23;;;1.70;;
57551;SDS011;43379;48.160;14.036;2023-04-24T06:07:59;2.13;;;1.80;;
57551;SDS011;43379;48.160;14.036;2023-04-24T06:10:25;2.33;;;1.60;;
57551;SDS011;43379;48.160;14.036;2023-04-24T06:12:51;2.03;;;1.83;;
57551;SDS011;43379;48.160;14.036;2023-04-24T06:15:16;2.50;;;2.00;;
57551;SDS011;43379;48.160;14.036;2023-04-24T06:17:42;2.47;;;2.27;;
57551;SDS011;43379;48.160;14.036;2023-04-24T06:20:08;3.67;;;2.50;;
57551;SDS011;43379;48.160;14.036;2023-04-24T06:22:35;2.30;;;2.10;;
57551;SDS011;43379;48.160;14.036;2023-04-24T06:25:01;2.20;;;1.83;;
57551;SDS011;43379;48.160;14.036;2023-04-24T06:27:28;3.00;;;2.13;;
57551;SDS011;43379;48.160;14.036;2023-04-24T06:29:54;2.03;;;1.67;;
57551;SDS011;43379;48.160;14.036;2023-04-24T06:32:21;2.00;;;1.80;;
57551;SDS011;43379;48.160;14.036;2023-04-24T06:34:48;2.57;;;1.60;;
57551;SDS011;43379;48.160;14.036;2023-04-24T06:37:13;2.43;;;2.10;;
57551;SDS011;43379;48.160;14.036;2023-04-24T06:39:40;2.20;;;2.00;;
57551;SDS011;43379;48.160;14.036;2023-04-24T06:42:06;1.87;;;1.60;;
57551;SDS011;43379;48.160;14.036;2023-04-24T06:44:33;2.77;;;1.77;;
57551;SDS011;43379;48.160;14.036;2023-04-24T06:47:02;1.80;;;1.60;;
57551;SDS011;43379;48.160;14.036;2023-04-24T06:49:28;3.20;;;1.60;;
57551;SDS011;43379;48.160;14.036;2023-04-24T06:51:54;2.57;;;2.37;;
57551;SDS011;43379;48.160;14.036;2023-04-24T06:54:19;1.60;;;1.50;;
57551;SDS011;43379;48.160;14.036;2023-04-24T06:56:45;3.20;;;1.60;;
57551;SDS011;43379;48.160;14.036;2023-04-24T06:59:12;2.93;;;1.93;;
57551;SDS011;43379;48.160;14.036;2023-04-24T07:01:38;2.70;;;2.23;;
57551;SDS011;43379;48.160;14.036;2023-04-24T07:04:03;2.63;;;2.23;;
57551;SDS011;43379;48.160;14.036;2023-04-24T07:06:29;2.80;;;2.60;;
57551;SDS011;43379;48.160;14.036;2023-04-24T07:08:56;2.47;;;2.00;;
57551;SDS011;43379;48.160;14.036;2023-04-24T07:11:22;3.07;;;2.30;;
57551;SDS011;43379;48.160;14.036;2023-04-24T07:13:48;2.10;;;1.90;;
57551;SDS011;43379;48.160;14.036;2023-04-24T07:16:14;2.10;;;1.80;;
57551;SDS011;43379;48.160;14.036;2023-04-24T07:18:39;2.23;;;2.03;;
57551;SDS011;43379;48.160;14.036;2023-04-24T07:21:05;2.70;;;2.23;;
57551;SDS011;43379;48.160;14.036;2023-04-24T07:23:32;3.47;;;2.77;;
57551;SDS011;43379;48.160;14.036;2023-04-24T07:25:57;2.27;;;2.07;;
57551;SDS011;43379;48.160;14.036;2023-04-24T07:28:23;2.13;;;1.93;;
57551;SDS011;43379;48.160;14.036;2023-04-24T07:30:49;2.10;;;1.90;;
57551;SDS011;43379;48.160;14.036;2023-04-24T07:33:15;2.10;;;1.90;;
57551;SDS011;43379;48.160;14.036;2023-04-24T07:35:41;2.17;;;1.97;;
57551;SDS011;43379;48.160;14.036;2023-04-24T07:38:06;2.50;;;2.30;;
57551;SDS011;43379;48.160;14.036;2023-04-24T07:40:32;2.00;;;1.80;;
57551;SDS011;43379;48.160;14.036;2023-04-24T07:42:57;2.33;;;2.13;;
57551;SDS011;43379;48.160;14.036;2023-04-24T07:45:25;2.57;;;2.30;;
57551;SDS011;43379;48.160;14.036;2023-04-24T07:47:52;2.50;;;1.90;;
57551;SDS011;43379;48.160;14.036;2023-04-24T07:50:18;2.40;;;1.83;;
57551;SDS011;43379;48.160;14.036;2023-04-24T07:52:44;2.30;;;2.10;;
57551;SDS011;43379;48.160;14.036;2023-04-24T07:55:10;2.50;;;2.30;;
57551;SDS011;43379;48.160;14.036;2023-04-24T07:57:36;3.47;;;2.40;;
57551;SDS011;43379;48.160;14.036;2023-04-24T08:00:02;3.73;;;2.17;;
57551;SDS011;43379;48.160;14.036;2023-04-24T08:02:29;2.07;;;1.67;;
57551;SDS011;43379;48.160;14.036;2023-04-24T08:04:54;1.90;;;1.63;;
57551;SDS011;43379;48.160;14.036;2023-04-24T08:07:20;1.87;;;1.67;;
57551;SDS011;43379;48.160;14.036;2023-04-24T08:09:46;1.90;;;1.70;;
57551;SDS011;43379;48.160;14.036;2023-04-24T08:12:12;4.77;;;1.90;;
57551;SDS011;43379;48.160;14.036;2023-04-24T08:14:38;1.97;;;1.63;;
57551;SDS011;43379;48.160;14.036;2023-04-24T08:17:03;1.80;;;1.70;;
57551;SDS011;43379;48.160;14.036;2023-04-24T08:19:29;2.03;;;1.77;;
57551;SDS011;43379;48.160;14.036;2023-04-24T08:21:55;2.87;;;2.53;;
57551;SDS011;43379;48.160;14.036;2023-04-24T08:24:20;3.20;;;2.33;;
57551;SDS011;43379;48.160;14.036;2023-04-24T08:26:47;2.40;;;2.20;;
57551;SDS011;43379;48.160;14.036;2023-04-24T08:29:16;2.10;;;1.90;;
57551;SDS011;43379;48.160;14.036;2023-04-24T08:31:42;3.07;;;2.17;;
57551;SDS011;43379;48.160;14.036;2023-04-24T08:34:09;4.13;;;2.10;;
57551;SDS011;43379;48.160;14.036;2023-04-24T08:36:35;2.30;;;1.73;;
57551;SDS011;43379;48.160;14.036;2023-04-24T08:39:01;2.37;;;1.80;;
57551;SDS011;43379;48.160;14.036;2023-04-24T08:41:27;3.33;;;1.97;;
57551;SDS011;43379;48.160;14.036;2023-04-24T08:43:53;3.20;;;1.93;;
57551;SDS011;43379;48.160;14.036;2023-04-24T08:46:20;2.00;;;1.80;;
57551;SDS011;43379;48.160;14.036;2023-04-24T08:48:47;3.13;;;1.90;;
57551;SDS011;43379;48.160;14.036;2023-04-24T08:51:14;2.27;;;1.60;;
57551;SDS011;43379;48.160;14.036;2023-04-24T08:53:40;2.13;;;1.77;;
57551;SDS011;43379;48.160;14.036;2023-04-24T08:56:06;2.30;;;2.10;;
57551;SDS011;43379;48.160;14.036;2023-04-24T08:58:32;3.20;;;1.97;;
57551;SDS011;43379;48.160;14.036;2023-04-24T09:00:58;2.83;;;1.80;;
57551;SDS011;43379;48.160;14.036;2023-04-24T09:03:26;2.00;;;1.90;;
57551;SDS011;43379;48.160;14.036;2023-04-24T09:05:53;3.10;;;2.03;;
57551;SDS011;43379;48.160;14.036;2023-04-24T09:08:20;4.20;;;2.00;;
57551;SDS011;43379;48.160;14.036;2023-04-24T09:10:50;2.83;;;2.30;;
57551;SDS011;43379;48.160;14.036;2023-04-24T09:13:15;2.03;;;1.80;;
57551;SDS011;43379;48.160;14.036;2023-04-24T09:15:42;1.70;;;1.60;;
57551;SDS011;43379;48.160;14.036;2023-04-24T09:18:07;2.60;;;1.30;;
57551;SDS011;43379;48.160;14.036;2023-04-24T09:20:33;1.53;;;1.30;;
57551;SDS011;43379;48.160;14.036;2023-04-24T09:23:01;2.10;;;1.80;;
57551;SDS011;43379;48.160;14.036;2023-04-24T09:25:33;2.90;;;1.37;;
57551;SDS011;43379;48.160;14.036;2023-04-24T09:28:01;1.97;;;1.57;;
57551;SDS011;43379;48.160;14.036;2023-04-24T09:30:28;1.60;;;1.20;;
57551;SDS011;43379;48.160;14.036;2023-04-24T09:33:09;1.53;;;1.43;;
57551;SDS011;43379;48.160;14.036;2023-04-24T09:35:36;2.00;;;1.57;;
57551;SDS011;43379;48.160;14.036;2023-04-24T09:38:05;1.60;;;1.50;;
57551;SDS011;43379;48.160;14.036;2023-04-24T09:40:30;3.53;;;1.97;;
57551;SDS011;43379;48.160;14.036;2023-04-24T09:42:59;2.27;;;1.70;;
57551;SDS011;43379;48.160;14.036;2023-04-24T09:45:28;5.97;;;4.70;;
57551;SDS011;43379;48.160;14.036;2023-04-24T09:48:00;4.73;;;4.00;;
57551;SDS011;43379;48.160;14.036;2023-04-24T09:50:26;6.00;;;2.33;;
57551;SDS011;43379;48.160;14.036;2023-04-24T09:52:57;1.57;;;1.37;;
57551;SDS011;43379;48.160;14.036;2023-04-24T09:55:24;1.60;;;1.50;;
57551;SDS011;43379;48.160;14.036;2023-04-24T09:57:59;1.20;;;1.10;;
57551;SDS011;43379;48.160;14.036;2023-04-24T10:00:27;2.27;;;1.40;;
57551;SDS011;43379;48.160;14.036;2023-04-24T10:02:55;2.23;;;1.80;;
57551;SDS011;43379;48.160;14.036;2023-04-24T10:10:28;2.20;;;1.30;;
57551;SDS011;43379;48.160;14.036;2023-04-24T10:12:55;1.93;;;1.27;;
57551;SDS011;43379;48.160;14.036;2023-04-24T10:15:21;1.90;;;1.10;;
57551;SDS011;43379;48.160;14.036;2023-04-24T10:17:48;2.17;;;1.13;;
57551;SDS011;43379;48.160;14.036;2023-04-24T10:20:18;1.93;;;1.10;;
57551;SDS011;43379;48.160;14.036;2023-04-24T10:22:52;2.60;;;1.13;;
57551;SDS011;43379;48.160;14.036;2023-04-24T10:25:19;3.03;;;1.10;;
57551;SDS011;43379;48.160;14.036;2023-04-24T10:27:46;3.70;;;1.60;;
57551;SDS011;43379;48.160;14.036;2023-04-24T10:30:14;1.83;;;1.03;;
57551;SDS011;43379;48.160;14.036;2023-04-24T10:32:40;1.60;;;1.30;;
57551;SDS011;43379;48.160;14.036;2023-04-24T10:35:06;2.57;;;1.60;;
57551;SDS011;43379;48.160;14.036;2023-04-24T10:37:38;1.13;;;1.00;;
57551;SDS011;43379;48.160;14.036;2023-04-24T10:40:18;2.10;;;1.10;;
57551;SDS011;43379;48.160;14.036;2023-04-24T10:42:51;1.40;;;1.00;;
57551;SDS011;43379;48.160;14.036;2023-04-24T10:45:21;1.20;;;0.90;;
57551;SDS011;43379;48.160;14.036;2023-04-24T10:50:46;2.70;;;1.03;;
57551;SDS011;43379;48.160;14.036;2023-04-24T10:53:16;1.63;;;0.87;;
57551;SDS011;43379;48.160;14.036;2023-04-24T10:56:05;1.63;;;1.00;;
57551;SDS011;43379;48.160;14.036;2023-04-24T10:58:35;1.37;;;0.87;;
57551;SDS011;43379;48.160;14.036;2023-04-24T11:01:06;4.13;;;1.00;;
57551;SDS011;43379;48.160;14.036;2023-04-24T11:03:33;1.07;;;0.90;;
57551;SDS011;43379;48.160;14.036;2023-04-24T11:06:01;1.27;;;0.90;;
57551;SDS011;43379;48.160;14.036;2023-04-24T11:11:16;1.10;;;0.93;;
57551;SDS011;43379;48.160;14.036;2023-04-24T11:16:34;1.57;;;1.00;;
57551;SDS011;43379;48.160;14.036;2023-04-24T11:24:31;1.20;;;1.00;;
57551;SDS011;43379;48.160;14.036;2023-04-24T11:32:23;2.07;;;1.00;;
57551;SDS011;43379;48.160;14.036;2023-04-24T11:37:36;1.80;;;1.33;;
57551;SDS011;43379;48.160;14.036;2023-04-24T11:40:03;1.77;;;1.27;;
57551;SDS011;43379;48.160;14.036;2023-04-24T11:42:33;1.20;;;0.90;;
57551;SDS011;43379;48.160;14.036;2023-04-24T11:45:00;2.10;;;0.90;;
57551;SDS011;43379;48.160;14.036;2023-04-24T11:47:27;1.70;;;0.80;;
57551;SDS011;43379;48.160;14.036;2023-04-24T11:49:54;1.30;;;0.87;;
57551;SDS011;43379;48.160;14.036;2023-04-24T11:52:20;1.30;;;1.10;;
57551;SDS011;43379;48.160;14.036;2023-04-24T11:54:49;1.00;;;0.80;;
57551;SDS011;43379;48.160;14.036;2023-04-24T11:57:15;1.70;;;1.10;;
57551;SDS011;43379;48.160;14.036;2023-04-24T11:59:42;1.47;;;0.90;;
57551;SDS011;43379;48.160;14.036;2023-04-24T12:02:07;2.30;;;0.93;;
57551;SDS011;43379;48.160;14.036;2023-04-24T12:04:39;4.40;;;1.43;;
57551;SDS011;43379;48.160;14.036;2023-04-24T12:07:08;1.90;;;0.97;;
57551;SDS011;43379;48.160;14.036;2023-04-24T12:09:41;4.70;;;0.90;;
57551;SDS011;43379;48.160;14.036;2023-04-24T12:12:15;2.70;;;0.97;;
57551;SDS011;43379;48.160;14.036;2023-04-24T12:17:27;4.33;;;1.57;;
57551;SDS011;43379;48.160;14.036;2023-04-24T12:19:57;2.27;;;1.50;;
57551;SDS011;43379;48.160;14.036;2023-04-24T12:22:25;2.60;;;1.57;;
57551;SDS011;43379;48.160;14.036;2023-04-24T12:24:57;2.00;;;1.40;;
57551;SDS011;43379;48.160;14.036;2023-04-24T12:27:24;2.70;;;1.30;;
57551;SDS011;43379;48.160;14.036;2023-04-24T12:29:51;5.10;;;1.70;;
57551;SDS011;43379;48.160;14.036;2023-04-24T12:32:27;1.40;;;1.20;;
57551;SDS011;43379;48.160;14.036;2023-04-24T12:34:53;2.07;;;1.60;;
57551;SDS011;43379;48.160;14.036;2023-04-24T12:37:20;3.27;;;2.30;;
57551;SDS011;43379;48.160;14.036;2023-04-24T12:42:33;1.50;;;1.40;;
57551;SDS011;43379;48.160;14.036;2023-04-24T12:45:00;2.03;;;1.60;;
57551;SDS011;43379;48.160;14.036;2023-04-24T12:47:27;2.47;;;1.70;;
57551;SDS011;43379;48.160;14.036;2023-04-24T12:49:53;2.30;;;2.00;;
57551;SDS011;43379;48.160;14.036;2023-04-24T12:52:20;2.70;;;1.90;;
57551;SDS011;43379;48.160;14.036;2023-04-24T12:54:46;2.40;;;1.70;;
57551;SDS011;43379;48.160;14.036;2023-04-24T12:57:12;1.60;;;1.50;;
57551;SDS011;43379;48.160;14.036;2023-04-24T12:59:38;1.57;;;1.27;;
57551;SDS011;43379;48.160;14.036;2023-04-24T13:02:04;2.47;;;1.90;;
57551;SDS011;43379;48.160;14.036;2023-04-24T13:04:31;1.63;;;1.50;;
57551;SDS011;43379;48.160;14.036;2023-04-24T13:06:57;2.10;;;1.60;;
57551;SDS011;43379;48.160;14.036;2023-04-24T13:09:23;1.93;;;1.30;;
57551;SDS011;43379;48.160;14.036;2023-04-24T13:11:49;2.63;;;1.60;;
57551;SDS011;43379;48.160;14.036;2023-04-24T13:14:14;2.43;;;1.70;;
57551;SDS011;43379;48.160;14.036;2023-04-24T13:16:40;2.53;;;1.80;;
57551;SDS011;43379;48.160;14.036;2023-04-24T13:19:06;2.00;;;1.67;;
57551;SDS011;43379;48.160;14.036;2023-04-24T13:21:31;1.93;;;1.83;;
57551;SDS011;43379;48.160;14.036;2023-04-24T13:23:57;3.60;;;1.80;;
57551;SDS011;43379;48.160;14.036;2023-04-24T13:26:24;2.63;;;1.90;;
57551;SDS011;43379;48.160;14.036;2023-04-24T13:28:50;2.90;;;1.87;;
57551;SDS011;43379;48.160;14.036;2023-04-24T13:31:16;2.80;;;1.70;;
57551;SDS011;43379;48.160;14.036;2023-04-24T13:33:41;1.83;;;1.73;;
57551;SDS011;43379;48.160;14.036;2023-04-24T13:36:07;2.87;;;1.80;;
57551;SDS011;43379;48.160;14.036;2023-04-24T13:38:33;2.23;;;1.80;;
57551;SDS011;43379;48.160;14.036;2023-04-24T13:40:59;2.03;;;1.90;;
57551;SDS011;43379;48.160;14.036;2023-04-24T13:43:25;2.80;;;2.20;;
57551;SDS011;43379;48.160;14.036;2023-04-24T13:45:51;2.73;;;2.20;;
57551;SDS011;43379;48.160;14.036;2023-04-24T13:48:17;2.80;;;2.60;;
57551;SDS011;43379;48.160;14.036;2023-04-24T13:50:43;2.10;;;1.60;;
57551;SDS011;43379;48.160;14.036;2023-04-24T13:53:09;1.97;;;1.87;;
57551;SDS011;43379;48.160;14.036;2023-04-24T13:55:35;2.40;;;2.20;;
57551;SDS011;43379;48.160;14.036;2023-04-24T13:58:01;2.37;;;1.77;;
57551;SDS011;43379;48.160;14.036;2023-04-24T14:00:27;2.63;;;2.27;;
57551;SDS011;43379;48.160;14.036;2023-04-24T14:02:53;2.70;;;2.40;;
57551;SDS011;43379;48.160;14.036;2023-04-24T14:05:19;2.90;;;2.40;;
57551;SDS011;43379;48.160;14.036;2023-04-24T14:07:46;1.90;;;1.80;;
57551;SDS011;43379;48.160;14.036;2023-04-24T14:10:12;1.83;;;1.63;;
57551;SDS011;43379;48.160;14.036;2023-04-24T14:12:37;2.27;;;2.07;;
57551;SDS011;43379;48.160;14.036;2023-04-24T14:15:03;2.57;;;2.20;;
57551;SDS011;43379;48.160;14.036;2023-04-24T14:17:30;5.10;;;2.90;;
57551;SDS011;43379;48.160;14.036;2023-04-24T14:19:56;2.23;;;1.80;;
57551;SDS011;43379;48.160;14.036;2023-04-24T14:22:22;2.40;;;2.00;;
57551;SDS011;43379;48.160;14.036;2023-04-24T14:24:47;3.33;;;2.20;;
57551;SDS011;43379;48.160;14.036;2023-04-24T14:27:13;2.37;;;1.93;;
57551;SDS011;43379;48.160;14.036;2023-04-24T14:29:39;3.37;;;2.60;;
57551;SDS011;43379;48.160;14.036;2023-04-24T14:32:05;2.47;;;2.23;;
57551;SDS011;43379;48.160;14.036;2023-04-24T14:34:31;4.40;;;2.73;;
57551;SDS011;43379;48.160;14.036;2023-04-24T14:36:56;4.00;;;2.90;;
57551;SDS011;43379;48.160;14.036;2023-04-24T14:39:23;2.70;;;2.30;;
57551;SDS011;43379;48.160;14.036;2023-04-24T14:41:49;3.10;;;2.27;;
57551;SDS011;43379;48.160;14.036;2023-04-24T14:44:15;3.50;;;2.57;;
57551;SDS011;43379;48.160;14.036;2023-04-24T14:46:41;3.57;;;2.30;;
57551;SDS011;43379;48.160;14.036;2023-04-24T14:49:07;4.83;;;2.20;;
57551;SDS011;43379;48.160;14.036;2023-04-24T14:51:35;2.20;;;2.00;;
57551;SDS011;43379;48.160;14.036;2023-04-24T14:54:01;2.00;;;1.80;;
57551;SDS011;43379;48.160;14.036;2023-04-24T14:56:26;1.77;;;1.67;;
57551;SDS011;43379;48.160;14.036;2023-04-24T14:58:52;4.57;;;2.03;;
57551;SDS011;43379;48.160;14.036;2023-04-24T15:01:18;2.80;;;2.10;;